Time;durP1;ratioP1;P1;durP2;ratioP2;P2;SDS_P1;SDS_P2;PMS_P1;PMS_P2;Temp;Humidity;BMP_temperature;BMP_pressure;BME280_temperature;BME280_humidity;BME280_pressure;Samples;Min_cycle;Max_cycle;Signal;HPM_P1;HPM_P2
2024/02/15 00:01:45;;;;;;;;;;;;;;;10.97;54.44;101643.78;4979189;28;19922;-82
2024/02/15 00:04:35;;;;;;;;;;;;;;;10.87;54.51;101644.69;4976870;28;19919;-82
2024/02/15 00:07:27;;;;;;;;;;;;;;;10.81;55.07;101654.06;4980931;28;19918;-82
2024/02/15 00:10:24;;;;;;;;;;;;;;;10.83;54.78;101648.31;4976070;28;19918;-82
2024/02/15 00:13:16;;;;;;;;;;;;;;;10.90;55.01;101640.59;4980790;28;19922;-82
2024/02/15 00:16:08;;;;;;;;;;;;;;;10.82;55.01;101638.56;4980702;28;19918;-83
2024/02/15 00:19:00;;;;;;;;;;;;;;;10.88;54.97;101634.63;4979215;28;20369;-82
2024/02/15 00:21:52;;;;;;;;;;;;;;;10.71;55.23;101635.16;4980191;28;19922;-81
2024/02/15 00:24:43;;;;;;;;;;;;;;;10.74;55.63;101631.84;4978340;28;19922;-82
2024/02/15 00:27:35;;;;;;;;;;;;;;;10.82;55.09;101638.56;4976010;28;19918;-81
2024/02/15 00:30:27;;;;;;;;;;;;;;;10.77;55.34;101636.69;4974905;28;20391;-82
2024/02/15 00:33:22;;;;;;;;;;;;;;;10.84;55.85;101637.13;4980043;28;20306;-82
2024/02/15 00:36:14;;;;;;;;;;;;;;;10.66;56.50;101636.03;4974952;28;19918;-81
2024/02/15 00:39:07;;;;;;;;;;;;;;;10.69;56.89;101619.13;4973008;28;20133;-82
2024/02/15 00:42:00;;;;;;;;;;;;;;;10.60;57.21;101625.50;4976098;28;19918;-81
2024/02/15 00:44:49;;;;;;;;;;;;;;;10.51;57.76;101619.94;4974335;28;19922;-82
2024/02/15 00:47:41;;;;;;;;;;;;;;;10.23;59.25;101626.25;4979933;28;19926;-82
2024/02/15 00:50:33;;;;;;;;;;;;;;;10.26;59.26;101621.03;4974097;28;19922;-82
2024/02/15 00:53:25;;;;;;;;;;;;;;;10.28;59.14;101624.28;4976320;28;19922;-82
2024/02/15 00:56:15;;;;;;;;;;;;;;;10.26;59.04;101626.47;4977276;28;19918;-82
2024/02/15 00:59:07;;;;;;;;;;;;;;;10.15;59.44;101624.16;4974698;28;19922;-82
2024/02/15 01:01:59;;;;;;;;;;;;;;;10.14;59.11;101625.25;4978398;28;20375;-81
2024/02/15 01:04:46;;;;;;;;;;;;;;;10.37;59.00;101623.63;4979912;28;19918;-81
2024/02/15 01:07:38;;;;;;;;;;;;;;;10.26;59.10;101620.22;4974645;28;19918;-82
2024/02/15 01:10:30;;;;;;;;;;;;;;;10.24;59.28;101617.00;4974952;28;19918;-82
2024/02/15 01:13:22;;;;;;;;;;;;;;;10.24;59.81;101619.72;4976053;28;19922;-82
2024/02/15 01:16:11;;;;;;;;;;;;;;;10.26;59.27;101618.31;4973652;28;19918;-82
2024/02/15 01:19:00;;;;;;;;;;;;;;;10.10;59.00;101616.88;4978607;28;19922;-83
2024/02/15 01:21:52;;;;;;;;;;;;;;;10.14;58.55;101612.47;4975408;28;19918;-82
2024/02/15 01:24:45;;;;;;;;;;;;;;;10.19;58.54;101623.31;4979210;28;19918;-82
2024/02/15 01:27:36;;;;;;;;;;;;;;;10.38;58.28;101608.94;4976908;28;19918;-82
2024/02/15 01:30:29;;;;;;;;;;;;;;;10.29;57.46;101614.22;4974370;28;19918;-81
2024/02/15 01:33:20;;;;;;;;;;;;;;;10.35;57.32;101618.50;4977925;28;19918;-82
2024/02/15 01:36:16;;;;;;;;;;;;;;;10.34;57.30;101616.06;4975815;28;19922;-82
2024/02/15 01:39:08;;;;;;;;;;;;;;;10.41;56.46;101621.97;4973534;28;19922;-82
2024/02/15 01:42:00;;;;;;;;;;;;;;;10.46;56.54;101621.91;4976991;28;19922;-81
2024/02/15 01:44:52;;;;;;;;;;;;;;;10.46;55.62;101619.19;4979731;28;19922;-82
2024/02/15 01:47:44;;;;;;;;;;;;;;;10.23;55.13;101620.81;4977896;28;19922;-82
2024/02/15 01:50:36;;;;;;;;;;;;;;;9.91;56.35;101617.88;4973765;28;19918;-82
2024/02/15 01:53:28;;;;;;;;;;;;;;;9.79;56.53;101613.69;4976128;28;19919;-81
2024/02/15 01:56:20;;;;;;;;;;;;;;;9.36;58.35;101615.44;4983455;28;19918;-81
2024/02/15 01:59:14;;;;;;;;;;;;;;;9.14;59.73;101614.28;4981539;28;19922;-81
2024/02/15 02:02:08;;;;;;;;;;;;;;;9.38;59.14;101615.16;4977149;28;20379;-81
2024/02/15 02:04:57;;;;;;;;;;;;;;;9.49;58.84;101618.59;4981606;28;19918;-81
2024/02/15 02:07:49;;;;;;;;;;;;;;;9.65;59.15;101611.94;4984288;28;19918;-81
2024/02/15 02:10:41;;;;;;;;;;;;;;;9.77;58.78;101618.59;4978698;28;19918;-82
2024/02/15 02:13:34;;;;;;;;;;;;;;;9.82;59.05;101612.28;4984499;28;19918;-81
2024/02/15 02:16:31;;;;;;;;;;;;;;;9.82;59.24;101609.56;4984499;28;19918;-81
2024/02/15 02:28:05;;;;;;;;;;;;;;;9.92;58.94;101595.88;4938183;29;19927;-80
2024/02/15 02:30:57;;;;;;;;;;;;;;;9.85;59.06;101598.94;4921589;29;19923;-81
2024/02/15 02:33:52;;;;;;;;;;;;;;;9.85;58.61;101590.78;4926416;29;19927;-80
2024/02/15 02:36:50;;;;;;;;;;;;;;;9.85;59.06;101593.50;4926379;29;19919;-81
2024/02/15 02:39:43;;;;;;;;;;;;;;;9.79;58.79;101586.53;4923014;29;19923;-80
2024/02/15 02:42:35;;;;;;;;;;;;;;;9.66;59.72;101589.09;4923109;29;20297;-81
2024/02/15 02:45:25;;;;;;;;;;;;;;;9.69;59.21;101604.84;4921050;29;19919;-80
2024/02/15 02:48:17;;;;;;;;;;;;;;;9.42;58.30;101608.88;4925977;29;19923;-81
2024/02/15 02:51:10;;;;;;;;;;;;;;;9.24;59.78;101612.31;4922066;29;19923;-80
2024/02/15 02:54:02;;;;;;;;;;;;;;;9.24;59.49;101612.31;4925653;29;20300;-81
2024/02/15 02:56:54;;;;;;;;;;;;;;;9.52;59.98;101607.97;4925383;29;19923;-80
2024/02/15 02:59:46;;;;;;;;;;;;;;;9.38;59.03;101596.97;4920832;29;19927;-80
2024/02/15 03:02:39;;;;;;;;;;;;;;;9.70;59.54;101593.66;4925092;29;19919;-80
2024/02/15 03:05:31;;;;;;;;;;;;;;;9.38;58.45;101604.31;4921398;29;19919;-80
2024/02/15 03:08:23;;;;;;;;;;;;;;;9.35;59.21;101600.25;4919656;29;19919;-80
2024/02/15 03:10:58;;;;;;;;;;;;;;;9.36;58.96;101591.03;5016720;23;20422;-81
2024/02/15 03:13:50;;;;;;;;;;;;;;;9.38;58.94;101599.69;4963959;28;20395;-81
2024/02/15 03:16:42;;;;;;;;;;;;;;;9.29;58.25;101595.16;4963885;28;20380;-81
2024/02/15 03:19:34;;;;;;;;;;;;;;;8.37;60.09;101599.59;4960786;28;19922;-80
2024/02/15 03:22:26;;;;;;;;;;;;;;;8.36;61.47;101597.97;4959753;28;20308;-80
2024/02/15 03:25:18;;;;;;;;;;;;;;;8.08;61.53;101613.75;4963325;28;19918;-80
2024/02/15 03:28:10;;;;;;;;;;;;;;;7.97;61.82;101614.91;4963570;28;19922;-80
2024/02/15 03:31:02;;;;;;;;;;;;;;;8.09;61.55;101606.44;4963602;28;19918;-80
2024/02/15 03:33:54;;;;;;;;;;;;;;;7.67;62.55;101602.22;4963501;28;19918;-80
2024/02/15 03:36:46;;;;;;;;;;;;;;;7.76;62.65;101605.19;4960118;28;20308;-80
2024/02/15 03:39:38;;;;;;;;;;;;;;;7.85;62.30;101605.44;4959841;28;19926;-80
2024/02/15 03:42:30;;;;;;;;;;;;;;;7.91;62.56;101597.03;4963165;28;19919;-81
2024/02/15 03:45:22;;;;;;;;;;;;;;;8.02;61.28;101590.50;4963162;28;19922;-81
2024/02/15 03:48:14;;;;;;;;;;;;;;;8.18;60.48;101599.34;4963187;28;19918;-81
2024/02/15 03:51:06;;;;;;;;;;;;;;;8.07;62.11;101597.78;4963225;28;20330;-80
2024/02/15 03:53:58;;;;;;;;;;;;;;;7.90;63.15;101600.00;4963016;28;20372;-80
2024/02/15 03:56:56;;;;;;;;;;;;;;;8.22;61.97;101594.22;4963091;28;19919;-80
2024/02/15 03:59:48;;;;;;;;;;;;;;;8.34;60.79;101600.94;4959517;28;19922;-80
2024/02/15 04:02:40;;;;;;;;;;;;;;;8.41;60.53;101598.75;4962915;28;20392;-80
2024/02/15 04:05:29;;;;;;;;;;;;;;;8.54;59.95;101587.28;4962699;28;20391;-80
2024/02/15 04:08:21;;;;;;;;;;;;;;;8.53;60.01;101596.50;4958775;28;19918;-80
2024/02/15 04:11:13;;;;;;;;;;;;;;;8.65;59.13;101596.16;4962871;28;19918;-80
2024/02/15 04:14:05;;;;;;;;;;;;;;;8.31;59.25;101601.50;4962817;28;19918;-80
2024/02/15 04:16:57;;;;;;;;;;;;;;;8.42;58.77;101597.66;4962587;28;20300;-79
2024/02/15 04:19:49;;;;;;;;;;;;;;;8.17;59.10;101600.47;4959152;28;19922;-80
2024/02/15 04:22:41;;;;;;;;;;;;;;;8.10;59.31;101594.53;4960440;28;19919;-80
2024/02/15 04:25:33;;;;;;;;;;;;;;;8.15;59.69;101597.22;4962664;28;19941;-80
2024/02/15 04:28:25;;;;;;;;;;;;;;;8.30;59.63;101589.06;4981949;28;19918;-80
2024/02/15 04:31:19;;;;;;;;;;;;;;;8.23;59.06;101593.13;4982091;28;19919;-80
2024/02/15 04:34:11;;;;;;;;;;;;;;;8.20;59.29;101594.47;4981895;28;19918;-80
2024/02/15 04:37:03;;;;;;;;;;;;;;;8.14;59.55;101584.75;4981779;28;19918;-80
2024/02/15 04:39:52;;;;;;;;;;;;;;;8.04;59.33;101593.72;4977718;28;19926;-80
2024/02/15 04:42:44;;;;;;;;;;;;;;;8.09;58.93;101599.13;4981539;28;19918;-80
2024/02/15 04:45:36;;;;;;;;;;;;;;;8.07;58.78;101595.91;4981684;28;20367;-80
2024/02/15 04:48:28;;;;;;;;;;;;;;;7.91;59.18;101591.63;4981425;28;19918;-80
2024/02/15 04:51:23;;;;;;;;;;;;;;;7.96;58.81;101583.47;4981558;28;19918;-80
2024/02/15 04:54:15;;;;;;;;;;;;;;;7.89;59.16;101584.84;4976762;28;20387;-80
2024/02/15 04:57:07;;;;;;;;;;;;;;;7.91;58.69;101580.78;4942838;29;19919;-79
2024/02/15 04:59:59;;;;;;;;;;;;;;;7.73;59.65;101582.19;4938569;29;19922;-80
2024/02/15 05:02:51;;;;;;;;;;;;;;;7.59;60.24;101583.03;4943073;29;19918;-81
2024/02/15 05:05:43;;;;;;;;;;;;;;;7.71;60.06;101583.56;4943160;28;20372;-81
2024/02/15 05:08:34;;;;;;;;;;;;;;;7.43;60.06;101582.25;4958921;28;19919;-79
2024/02/15 05:11:26;;;;;;;;;;;;;;;7.34;60.45;101585.78;4955304;28;19926;-79
2024/02/15 05:14:21;;;;;;;;;;;;;;;7.35;60.75;101588.22;4961219;28;20391;-80
2024/02/15 05:17:13;;;;;;;;;;;;;;;7.33;60.05;101584.97;4957334;28;19918;-80
2024/02/15 05:20:10;;;;;;;;;;;;;;;7.46;60.31;101575.50;4946088;28;19922;-80
2024/02/15 05:23:02;;;;;;;;;;;;;;;7.52;60.14;101575.19;4950699;28;19923;-80
2024/02/15 05:25:54;;;;;;;;;;;;;;;7.58;60.05;101576.00;4937557;29;19919;-81
2024/02/15 05:28:46;;;;;;;;;;;;;;;7.60;60.01;101580.06;4939595;29;19922;-79
2024/02/15 05:31:37;;;;;;;;;;;;;;;7.62;60.40;101577.06;4951635;28;19919;-80
2024/02/15 05:34:29;;;;;;;;;;;;;;;7.61;60.50;101573.56;4955217;28;19919;-79
2024/02/15 05:37:21;;;;;;;;;;;;;;;7.61;60.05;101576.28;4958161;28;19926;-80
2024/02/15 05:40:18;;;;;;;;;;;;;;;7.66;59.96;101573.56;4955435;28;20349;-79
2024/02/15 05:43:10;;;;;;;;;;;;;;;7.58;60.00;101570.56;4959511;28;20296;-80
2024/02/15 05:46:03;;;;;;;;;;;;;;;7.67;60.05;101566.22;4965985;28;19918;-79
2024/02/15 05:48:55;;;;;;;;;;;;;;;7.77;60.20;101571.63;4975162;28;19918;-79
2024/02/15 05:51:47;;;;;;;;;;;;;;;7.93;59.84;101580.50;4980451;28;20301;-79
2024/02/15 05:54:39;;;;;;;;;;;;;;;7.89;59.36;101577.53;4979864;28;19918;-79
2024/02/15 05:57:29;;;;;;;;;;;;;;;7.93;59.40;101577.78;4979335;28;19918;-80
2024/02/15 06:00:21;;;;;;;;;;;;;;;7.79;58.99;101582.16;4974972;28;19922;-80
2024/02/15 06:03:12;;;;;;;;;;;;;;;7.72;59.12;101583.25;4951217;28;19919;-80
2024/02/15 06:06:06;;;;;;;;;;;;;;;7.79;58.96;101584.88;4953589;29;19918;-80
2024/02/15 06:08:59;;;;;;;;;;;;;;;7.89;59.11;101585.66;4957084;28;19918;-80
2024/02/15 06:11:51;;;;;;;;;;;;;;;8.52;62.31;101592.19;4980089;28;20414;-79
2024/02/15 06:14:43;;;;;;;;;;;;;;;8.22;58.84;101592.31;4977247;28;19919;-79
2024/02/15 06:17:35;;;;;;;;;;;;;;;8.56;58.35;101585.13;4961865;28;20396;-79
2024/02/15 06:20:26;;;;;;;;;;;;;;;8.51;57.87;101582.44;4949139;29;19926;-79
2024/02/15 06:23:18;;;;;;;;;;;;;;;7.47;60.69;101588.72;4956755;29;20384;-78
2024/02/15 06:26:10;;;;;;;;;;;;;;;6.49;64.31;101588.16;4954573;29;19918;-77
2024/02/15 06:41:31;;;;;;;;;;;;;;;5.68;66.98;101603.16;4944719;28;19922;-79
2024/02/15 06:44:23;;;;;;;;;;;;;;;5.62;68.64;101609.56;4962577;28;19922;-80
2024/02/15 06:47:15;;;;;;;;;;;;;;;5.38;69.01;101611.84;4952523;28;19923;-78
2024/02/15 06:50:07;;;;;;;;;;;;;;;5.48;69.93;101620.00;4954468;28;19919;-80
2024/02/15 06:52:59;;;;;;;;;;;;;;;5.88;70.30;101625.69;4951607;28;19919;-78
2024/02/15 06:55:51;;;;;;;;;;;;;;;6.01;68.77;101632.50;4964539;28;19918;-79
2024/02/15 06:58:42;;;;;;;;;;;;;;;6.11;68.61;101632.56;4949945;28;19941;-77
2024/02/15 07:01:32;;;;;;;;;;;;;;;6.45;68.33;101633.78;4960764;28;19922;-79
2024/02/15 07:04:24;;;;;;;;;;;;;;;6.79;67.07;101630.63;4957120;28;19919;-79
2024/02/15 07:07:17;;;;;;;;;;;;;;;7.22;66.92;101627.44;4959095;28;19922;-79
2024/02/15 07:10:09;;;;;;;;;;;;;;;7.40;65.75;101630.69;4958277;28;19922;-79
2024/02/15 07:13:00;;;;;;;;;;;;;;;7.48;64.99;101622.81;4962692;28;19919;-79
2024/02/15 07:15:50;;;;;;;;;;;;;;;7.60;64.63;101636.91;4962548;28;19923;-80
2024/02/15 07:18:39;;;;;;;;;;;;;;;7.68;64.25;101628.22;4961390;28;20180;-78
2024/02/15 07:21:31;;;;;;;;;;;;;;;7.83;64.32;101626.56;4952524;28;19922;-78
2024/02/15 07:24:24;;;;;;;;;;;;;;;8.22;63.42;101630.25;4956634;28;19923;-78
2024/02/15 07:27:16;;;;;;;;;;;;;;;8.24;62.63;101629.94;4957467;28;19918;-79
2024/02/15 07:30:08;;;;;;;;;;;;;;;8.22;62.69;101624.81;4950101;28;19918;-78
2024/02/15 07:32:59;;;;;;;;;;;;;;;8.28;62.43;101629.13;4946765;28;19919;-79
2024/02/15 07:35:55;;;;;;;;;;;;;;;8.34;63.14;101628.03;4950095;28;19919;-79
2024/02/15 07:38:48;;;;;;;;;;;;;;;8.35;63.04;101635.09;4942919;29;19919;-79
2024/02/15 07:41:40;;;;;;;;;;;;;;;8.44;62.59;101644.25;4949147;29;20380;-79
2024/02/15 07:44:32;;;;;;;;;;;;;;;8.54;63.12;101648.81;4965285;28;20396;-79
2024/02/15 07:47:22;;;;;;;;;;;;;;;8.63;63.31;101649.06;4963123;28;19918;-79
2024/02/15 07:50:16;;;;;;;;;;;;;;;8.68;63.15;101643.63;4953720;28;20384;-79
2024/02/15 07:53:09;;;;;;;;;;;;;;;8.68;63.06;101639.00;4962732;28;19919;-79
2024/02/15 07:56:02;;;;;;;;;;;;;;;8.66;63.52;101641.19;4963082;28;19918;-80
2024/02/15 07:58:53;;;;;;;;;;;;;;;8.53;64.30;101648.00;4981277;28;19918;-79
2024/02/15 08:01:45;;;;;;;;;;;;;;;8.61;64.66;101643.91;4982352;28;19926;-80
2024/02/15 08:04:40;;;;;;;;;;;;;;;8.71;64.86;101643.03;4982324;28;19918;-79
2024/02/15 08:07:35;;;;;;;;;;;;;;;8.53;65.59;101642.59;4982304;28;19917;-79
2024/02/15 08:10:28;;;;;;;;;;;;;;;8.59;66.11;101640.66;4975251;28;19919;-80
2024/02/15 08:13:20;;;;;;;;;;;;;;;8.65;65.92;101644.16;4961112;28;19977;-80
2024/02/15 08:16:12;;;;;;;;;;;;;;;8.72;65.83;101650.09;4958671;28;19919;-80
2024/02/15 08:19:04;;;;;;;;;;;;;;;8.71;64.96;101648.47;4956651;28;19918;-80
2024/02/15 08:21:56;;;;;;;;;;;;;;;8.77;64.10;101642.75;4962828;28;19918;-79
2024/02/15 08:24:48;;;;;;;;;;;;;;;8.97;63.52;101649.94;4962785;28;19918;-79
2024/02/15 08:27:40;;;;;;;;;;;;;;;9.03;63.72;101656.97;4962712;28;19922;-79
2024/02/15 08:30:32;;;;;;;;;;;;;;;9.08;63.25;101654.22;4957235;28;19919;-79
2024/02/15 08:33:24;;;;;;;;;;;;;;;9.07;62.61;101659.91;4962588;28;19918;-79
2024/02/15 08:36:14;;;;;;;;;;;;;;;9.15;62.76;101649.25;4962688;28;20329;-79
2024/02/15 08:39:06;;;;;;;;;;;;;;;9.22;62.83;101644.34;4958456;28;19918;-79
2024/02/15 08:41:58;;;;;;;;;;;;;;;9.36;61.96;101649.91;4961915;28;19919;-79
2024/02/15 08:44:50;;;;;;;;;;;;;;;9.40;61.93;101649.06;4962695;28;19918;-79
2024/02/15 08:47:43;;;;;;;;;;;;;;;9.49;61.62;101643.84;4944082;29;19918;-79
2024/02/15 08:50:35;;;;;;;;;;;;;;;9.61;60.74;101659.75;4976122;28;19922;-79
2024/02/15 08:53:27;;;;;;;;;;;;;;;9.68;61.46;101662.94;4981902;28;19918;-79
2024/02/15 08:56:14;;;;;;;;;;;;;;;9.78;61.15;101671.00;4970715;28;19919;-79
2024/02/15 08:59:02;;;;;;;;;;;;;;;9.86;61.17;101668.47;4949314;28;19918;-79
2024/02/15 09:01:54;;;;;;;;;;;;;;;9.94;61.45;101667.03;4894617;29;20556;-78
2024/02/15 09:04:46;;;;;;;;;;;;;;;9.98;61.20;101659.13;4896608;29;19928;-78
2024/02/15 09:07:39;;;;;;;;;;;;;;;10.05;61.21;101654.97;4897954;29;20293;-78
2024/02/15 09:10:31;;;;;;;;;;;;;;;10.11;61.53;101656.50;4888332;29;19919;-78
2024/02/15 09:13:23;;;;;;;;;;;;;;;10.17;61.43;101655.41;4885528;29;19923;-79
2024/02/15 09:16:15;;;;;;;;;;;;;;;10.25;61.30;101649.34;4893160;29;20417;-79
2024/02/15 09:19:07;;;;;;;;;;;;;;;10.30;61.35;101645.75;4897980;29;20301;-78
2024/02/15 09:21:59;;;;;;;;;;;;;;;10.38;61.67;101647.00;4915816;29;19919;-78
2024/02/15 09:24:50;;;;;;;;;;;;;;;10.41;62.05;101643.72;4899376;29;19920;-78
2024/02/15 09:27:42;;;;;;;;;;;;;;;10.47;61.98;101650.69;4897122;29;19923;-79
2024/02/15 09:30:34;;;;;;;;;;;;;;;10.44;62.36;101649.38;4897313;29;20313;-79
2024/02/15 09:33:24;;;;;;;;;;;;;;;10.56;62.49;101648.97;4914238;29;19919;-78
2024/02/15 09:36:16;;;;;;;;;;;;;;;10.67;62.12;101642.25;4905268;29;20305;-79
2024/02/15 09:39:08;;;;;;;;;;;;;;;10.77;62.23;101642.13;4913135;29;19927;-79
2024/02/15 09:42:03;;;;;;;;;;;;;;;10.87;61.95;101644.69;4893382;29;19920;-79
2024/02/15 09:44:55;;;;;;;;;;;;;;;10.77;61.77;101636.69;4896463;29;20398;-78
2024/02/15 09:47:47;;;;;;;;;;;;;;;10.83;61.19;101635.50;4901353;29;19919;-79
2024/02/15 09:50:41;;;;;;;;;;;;;;;10.89;62.01;101630.81;4915706;29;19919;-79
2024/02/15 09:53:37;;;;;;;;;;;;;;;11.01;61.81;101632.00;4921632;29;19919;-79
2024/02/15 09:56:30;;;;;;;;;;;;;;;11.25;62.36;101625.63;4892487;29;19920;-79
2024/02/15 09:59:22;;;;;;;;;;;;;;;11.28;61.74;101625.00;4916090;29;19919;-80
2024/02/15 10:02:14;;;;;;;;;;;;;;;11.34;61.26;101626.56;4918435;29;19919;-79
2024/02/15 10:05:06;;;;;;;;;;;;;;;11.49;60.93;101626.28;4916475;29;19919;-79
2024/02/15 10:07:58;;;;;;;;;;;;;;;11.50;59.94;101628.72;4919512;29;19927;-80
2024/02/15 10:10:50;;;;;;;;;;;;;;;11.63;60.11;101626.34;4915338;29;19919;-80
2024/02/15 10:13:42;;;;;;;;;;;;;;;11.62;60.23;101625.53;4921152;29;20301;-80
2024/02/15 10:16:35;;;;;;;;;;;;;;;11.61;60.80;101631.28;4921994;29;19923;-80
2024/02/15 10:19:27;;;;;;;;;;;;;;;11.78;60.73;101631.56;4914049;29;19920;-80
2024/02/15 10:22:19;;;;;;;;;;;;;;;11.95;60.19;101629.03;4916973;29;19924;-79
2024/02/15 10:25:17;;;;;;;;;;;;;;;12.22;59.51;101636.41;4903029;29;19919;-80
2024/02/15 10:28:09;;;;;;;;;;;;;;;12.48;58.21;101632.06;4900495;29;20385;-81
2024/02/15 10:31:09;;;;;;;;;;;;;;;12.61;57.55;101624.94;4903745;29;20460;-80
2024/02/15 10:34:04;;;;;;;;;;;;;;;12.76;58.09;101630.06;4901554;29;19919;-80
2024/02/15 10:36:56;;;;;;;;;;;;;;;12.89;57.51;101621.03;4905793;29;20377;-80
2024/02/15 10:39:45;;;;;;;;;;;;;;;12.99;57.11;101622.72;4902866;29;19927;-80
2024/02/15 10:42:38;;;;;;;;;;;;;;;13.12;57.18;101616.44;4900782;29;20373;-79
2024/02/15 10:45:30;;;;;;;;;;;;;;;13.26;57.23;101617.97;4904058;29;19920;-80
2024/02/15 10:48:22;;;;;;;;;;;;;;;13.38;56.51;101602.94;4901226;29;19919;-80
2024/02/15 10:51:16;;;;;;;;;;;;;;;13.56;55.84;101602.72;4890981;29;20232;-80
2024/02/15 10:54:12;;;;;;;;;;;;;;;13.71;55.58;101605.06;4897866;29;19986;-80
2024/02/15 10:57:05;;;;;;;;;;;;;;;13.89;55.77;101595.00;4900686;29;19920;-80
2024/02/15 11:00:01;;;;;;;;;;;;;;;14.04;54.75;101596.50;4909314;29;19923;-79
2024/02/15 11:03:02;;;;;;;;;;;;;;;14.17;54.43;101592.06;4890739;29;19919;-80
2024/02/15 11:05:54;;;;;;;;;;;;;;;14.29;53.59;101586.75;4905229;29;19923;-80
2024/02/15 11:08:46;;;;;;;;;;;;;;;14.38;52.59;101579.41;4902710;29;19920;-81
2024/02/15 11:11:40;;;;;;;;;;;;;;;14.54;52.49;101566.88;4901109;29;20393;-79
2024/02/15 11:14:32;;;;;;;;;;;;;;;14.68;51.84;101569.47;4904076;29;19919;-80
2024/02/15 11:17:43;;;;;;;;;;;;;;;14.76;51.01;101569.47;4901764;29;19920;-80
2024/02/15 11:20:38;;;;;;;;;;;;;;;14.91;50.43;101568.19;4900007;29;19942;-80
2024/02/15 11:23:30;;;;;;;;;;;;;;;15.02;48.91;101566.72;4902752;29;19949;-81
2024/02/15 11:26:38;;;;;;;;;;;;;;;15.08;48.30;101564.63;4899060;29;20480;-81
2024/02/15 11:29:47;;;;;;;;;;;;;;;15.17;49.38;101549.78;4899846;29;19923;-80
2024/02/15 11:32:42;;;;;;;;;;;;;;;15.34;50.10;101560.69;4899953;29;19923;-79
2024/02/15 11:35:35;;;;;;;;;;;;;;;15.48;50.74;101549.53;4910933;29;20561;-80
2024/02/15 11:38:33;;;;;;;;;;;;;;;15.56;50.19;101550.66;4908665;29;19919;-80
2024/02/15 11:41:23;;;;;;;;;;;;;;;15.58;47.69;101549.19;4898134;29;19923;-79
2024/02/15 11:44:18;;;;;;;;;;;;;;;15.64;46.56;101545.16;4908393;29;20396;-80
2024/02/15 11:47:10;;;;;;;;;;;;;;;15.81;46.58;101550.53;4899575;29;19920;-80
2024/02/15 11:50:03;;;;;;;;;;;;;;;15.82;46.58;101543.13;4894251;29;19919;-80
2024/02/15 11:53:05;;;;;;;;;;;;;;;16.07;47.79;101544.94;4901250;29;19919;-79
2024/02/15 11:56:03;;;;;;;;;;;;;;;16.05;47.95;101546.41;4893890;29;19924;-80
2024/02/15 11:59:06;;;;;;;;;;;;;;;16.12;47.61;101533.75;4893562;29;19927;-80
2024/02/15 12:20:46;;;;;;;;;;;;;;;16.71;46.30;101516.41;4890838;29;19924;-81
2024/02/15 12:23:39;;;;;;;;;;;;;;;16.57;46.21;101508.38;4899578;29;19957;-80
2024/02/15 12:26:34;;;;;;;;;;;;;;;16.52;46.35;101509.41;4899017;29;19923;-80
2024/02/15 12:29:26;;;;;;;;;;;;;;;16.73;46.25;101503.13;4901654;29;19920;-80
2024/02/15 12:32:22;;;;;;;;;;;;;;;16.81;45.68;101494.78;4900703;29;19927;-79
2024/02/15 12:35:23;;;;;;;;;;;;;;;16.86;46.13;101483.63;4898497;29;19920;-80
2024/02/15 12:38:14;;;;;;;;;;;;;;;16.85;46.00;101484.75;4905786;29;19919;-80
2024/02/15 12:41:18;;;;;;;;;;;;;;;16.94;45.76;101484.66;4905274;29;19924;-80
2024/02/15 12:44:10;;;;;;;;;;;;;;;17.04;45.24;101471.28;4907848;29;19919;-80
2024/02/15 12:47:03;;;;;;;;;;;;;;;17.06;45.36;101466.25;4895895;29;19919;-80
2024/02/15 12:49:55;;;;;;;;;;;;;;;17.19;45.24;101460.78;4891655;29;19920;-80
2024/02/15 12:52:47;;;;;;;;;;;;;;;17.20;44.98;101454.94;4900551;29;19919;-80
2024/02/15 12:55:39;;;;;;;;;;;;;;;17.20;44.69;101445.88;4899624;29;19923;-80
2024/02/15 12:58:28;;;;;;;;;;;;;;;17.23;44.72;101446.00;4900061;29;19920;-80
2024/02/15 13:01:18;;;;;;;;;;;;;;;17.18;44.17;101439.91;4897687;29;19923;-80
2024/02/15 13:04:08;;;;;;;;;;;;;;;17.24;44.02;101436.63;4898947;29;19924;-80
2024/02/15 13:06:57;;;;;;;;;;;;;;;17.19;43.55;101430.53;4894822;29;19919;-80
2024/02/15 13:09:49;;;;;;;;;;;;;;;17.13;43.53;101423.66;4907778;29;19927;-80
2024/02/15 13:12:41;;;;;;;;;;;;;;;17.29;43.65;101427.34;4898108;29;19920;-80
2024/02/15 13:15:36;;;;;;;;;;;;;;;17.33;43.29;101425.50;4901670;29;19923;-80
2024/02/15 13:18:28;;;;;;;;;;;;;;;17.36;43.71;101422.09;4906497;29;20371;-82
2024/02/15 13:21:20;;;;;;;;;;;;;;;17.42;43.94;101412.47;4906696;29;19923;-80
2024/02/15 13:24:12;;;;;;;;;;;;;;;17.30;43.50;101417.94;4916829;29;19919;-80
2024/02/15 13:27:06;;;;;;;;;;;;;;;17.27;43.69;101418.66;4902673;29;20293;-80
2024/02/15 13:29:58;;;;;;;;;;;;;;;17.33;43.68;101409.81;4917810;29;19927;-80
2024/02/15 13:32:51;;;;;;;;;;;;;;;17.32;43.43;101419.19;4917773;29;19919;-79
2024/02/15 13:35:38;;;;;;;;;;;;;;;17.37;44.18;101418.19;4912618;29;20581;-80
2024/02/15 13:38:30;;;;;;;;;;;;;;;17.32;44.61;101418.41;4900489;29;19920;-80
2024/02/15 13:41:25;;;;;;;;;;;;;;;17.26;44.58;101412.34;4898606;29;19923;-80
2024/02/15 13:44:17;;;;;;;;;;;;;;;17.34;45.10;101416.91;4897514;29;20394;-80
2024/02/15 13:47:09;;;;;;;;;;;;;;;17.33;45.32;101409.00;4902309;29;20602;-80
2024/02/15 13:50:01;;;;;;;;;;;;;;;17.28;45.45;101417.47;4897089;29;19919;-79
2024/02/15 13:52:53;;;;;;;;;;;;;;;17.37;45.59;101412.69;4893401;29;19979;-80
2024/02/15 13:55:45;;;;;;;;;;;;;;;17.23;45.04;101407.50;4899263;29;19924;-80
2024/02/15 13:58:35;;;;;;;;;;;;;;;17.12;44.40;101400.09;4896083;29;20370;-80
2024/02/15 14:01:26;;;;;;;;;;;;;;;17.23;45.02;101401.22;4896124;29;19924;-80
2024/02/15 14:04:18;;;;;;;;;;;;;;;17.19;44.47;101398.34;4899079;29;19924;-80
2024/02/15 14:07:08;;;;;;;;;;;;;;;17.33;43.98;101400.75;4910785;29;19919;-80
2024/02/15 14:10:00;;;;;;;;;;;;;;;17.30;44.92;101396.75;4903048;29;19923;-79
2024/02/15 14:12:52;;;;;;;;;;;;;;;17.30;44.30;101393.22;4905756;29;19919;-80
2024/02/15 14:15:41;;;;;;;;;;;;;;;17.38;44.62;101400.53;4900764;29;19919;-80
2024/02/15 14:18:33;;;;;;;;;;;;;;;17.33;44.52;101395.25;4898752;29;19919;-81
2024/02/15 14:21:25;;;;;;;;;;;;;;;17.38;44.41;101387.59;4904428;29;19924;-80
2024/02/15 14:24:16;;;;;;;;;;;;;;;17.38;44.13;101389.53;4883282;29;19920;-80
2024/02/15 14:27:08;;;;;;;;;;;;;;;17.40;43.92;101385.31;4888382;29;19923;-80
2024/02/15 14:33:06;;;;;;;;;;;;;;;17.35;43.55;101380.03;4890098;29;19924;-80
2024/02/15 14:35:57;;;;;;;;;;;;;;;17.42;43.67;101382.22;4911349;29;19919;-80
2024/02/15 14:38:49;;;;;;;;;;;;;;;17.37;43.74;101374.19;4918965;29;19919;-80
2024/02/15 14:41:41;;;;;;;;;;;;;;;17.48;44.20;101375.31;4894812;29;19927;-81
2024/02/15 14:44:33;;;;;;;;;;;;;;;17.45;43.54;101370.53;4902418;29;20305;-80
2024/02/15 14:47:22;;;;;;;;;;;;;;;17.60;43.66;101371.78;4904000;29;19919;-80
2024/02/15 14:50:14;;;;;;;;;;;;;;;17.63;43.27;101377.38;4906002;29;20326;-80
2024/02/15 14:53:02;;;;;;;;;;;;;;;17.66;42.54;101379.47;4896461;29;19919;-80
2024/02/15 14:55:51;;;;;;;;;;;;;;;17.68;42.43;101368.09;4899937;29;19928;-80
2024/02/15 14:58:43;;;;;;;;;;;;;;;17.63;42.79;101376.59;4898234;29;19920;-80
2024/02/15 15:01:35;;;;;;;;;;;;;;;17.68;42.03;101363.41;4909110;29;20385;-80
2024/02/15 15:04:27;;;;;;;;;;;;;;;17.75;42.33;101365.56;4902623;29;20334;-80
2024/02/15 15:13:39;;;;;;;;;;;;;;;17.61;43.01;101376.94;4897099;29;19923;-80
2024/02/15 15:16:31;;;;;;;;;;;;;;;17.48;43.32;101378.06;4898554;29;19923;-80
2024/02/15 15:19:23;;;;;;;;;;;;;;;17.52;43.08;101370.75;4886475;29;19923;-80
2024/02/15 15:22:15;;;;;;;;;;;;;;;17.49;43.30;101363.97;4898496;29;20325;-80
2024/02/15 15:25:07;;;;;;;;;;;;;;;17.42;43.10;101372.00;4899332;29;19923;-80
2024/02/15 15:28:01;;;;;;;;;;;;;;;17.47;43.23;101371.75;4893223;29;19920;-80
2024/02/15 15:30:53;;;;;;;;;;;;;;;17.46;43.01;101370.19;4891637;29;19923;-80
2024/02/15 15:33:45;;;;;;;;;;;;;;;17.48;42.96;101369.81;4901107;29;19919;-80
2024/02/15 15:36:36;;;;;;;;;;;;;;;17.34;42.67;101372.94;4898110;29;19924;-81
2024/02/15 15:39:28;;;;;;;;;;;;;;;17.30;43.18;101366.53;4895904;29;20329;-80